sensor_id;sensor_type;location;lat;lon;timestamp;P1;durP1;ratioP1;P2;durP2;ratioP2
52102;SDS011;38101;53.126;6.878;2022-12-07T00:00:52;7.32;;;3.58;;
52102;SDS011;38101;53.126;6.878;2022-12-07T00:03:18;8.48;;;3.60;;
52102;SDS011;38101;53.126;6.878;2022-12-07T00:05:44;9.27;;;3.35;;
52102;SDS011;38101;53.126;6.878;2022-12-07T00:08:10;7.32;;;3.10;;
52102;SDS011;38101;53.126;6.878;2022-12-07T00:10:35;7.35;;;3.13;;
52102;SDS011;38101;53.126;6.878;2022-12-07T00:13:01;5.72;;;2.50;;
52102;SDS011;38101;53.126;6.878;2022-12-07T00:15:27;5.93;;;2.72;;
52102;SDS011;38101;53.126;6.878;2022-12-07T00:17:52;6.90;;;2.65;;
52102;SDS011;38101;53.126;6.878;2022-12-07T00:20:18;6.22;;;2.50;;
52102;SDS011;38101;53.126;6.878;2022-12-07T00:22:43;5.05;;;2.67;;
52102;SDS011;38101;53.126;6.878;2022-12-07T00:25:09;5.10;;;2.25;;
52102;SDS011;38101;53.126;6.878;2022-12-07T00:27:35;6.90;;;2.42;;
52102;SDS011;38101;53.126;6.878;2022-12-07T00:30:00;6.63;;;2.42;;
52102;SDS011;38101;53.126;6.878;2022-12-07T00:32:26;7.93;;;2.30;;
52102;SDS011;38101;53.126;6.878;2022-12-07T00:34:52;7.93;;;2.63;;
52102;SDS011;38101;53.126;6.878;2022-12-07T00:37:17;6.78;;;2.20;;
52102;SDS011;38101;53.126;6.878;2022-12-07T00:39:43;8.20;;;2.58;;
52102;SDS011;38101;53.126;6.878;2022-12-07T00:42:11;6.63;;;2.80;;
52102;SDS011;38101;53.126;6.878;2022-12-07T00:44:36;3.70;;;1.88;;
52102;SDS011;38101;53.126;6.878;2022-12-07T00:47:02;6.70;;;2.03;;
52102;SDS011;38101;53.126;6.878;2022-12-07T00:49:28;7.65;;;2.42;;
52102;SDS011;38101;53.126;6.878;2022-12-07T00:51:53;4.55;;;1.95;;
52102;SDS011;38101;53.126;6.878;2022-12-07T00:54:19;5.25;;;1.77;;
52102;SDS011;38101;53.126;6.878;2022-12-07T00:56:45;7.70;;;2.72;;
52102;SDS011;38101;53.126;6.878;2022-12-07T00:59:12;6.03;;;1.83;;
52102;SDS011;38101;53.126;6.878;2022-12-07T01:01:40;8.43;;;3.00;;
52102;SDS011;38101;53.126;6.878;2022-12-07T01:04:05;5.10;;;1.83;;
52102;SDS011;38101;53.126;6.878;2022-12-07T01:06:31;6.65;;;2.00;;
52102;SDS011;38101;53.126;6.878;2022-12-07T01:08:57;7.88;;;2.03;;
52102;SDS011;38101;53.126;6.878;2022-12-07T01:11:25;7.57;;;2.40;;
52102;SDS011;38101;53.126;6.878;2022-12-07T01:13:53;3.75;;;1.33;;
52102;SDS011;38101;53.126;6.878;2022-12-07T01:16:20;7.60;;;2.30;;
52102;SDS011;38101;53.126;6.878;2022-12-07T01:18:47;11.30;;;2.28;;
52102;SDS011;38101;53.126;6.878;2022-12-07T01:21:16;5.18;;;1.80;;
52102;SDS011;38101;53.126;6.878;2022-12-07T01:23:45;3.55;;;1.67;;
52102;SDS011;38101;53.126;6.878;2022-12-07T01:26:12;6.22;;;1.70;;
52102;SDS011;38101;53.126;6.878;2022-12-07T01:28:39;4.20;;;1.55;;
52102;SDS011;38101;53.126;6.878;2022-12-07T01:31:06;5.80;;;1.60;;
52102;SDS011;38101;53.126;6.878;2022-12-07T01:33:36;5.03;;;1.95;;
52102;SDS011;38101;53.126;6.878;2022-12-07T01:36:06;9.07;;;1.83;;
52102;SDS011;38101;53.126;6.878;2022-12-07T01:38:37;6.43;;;1.83;;
52102;SDS011;38101;53.126;6.878;2022-12-07T01:41:03;8.63;;;2.03;;
52102;SDS011;38101;53.126;6.878;2022-12-07T01:43:30;5.75;;;2.13;;
52102;SDS011;38101;53.126;6.878;2022-12-07T01:45:58;6.00;;;1.80;;
52102;SDS011;38101;53.126;6.878;2022-12-07T01:48:26;5.63;;;1.73;;
52102;SDS011;38101;53.126;6.878;2022-12-07T01:50:56;4.93;;;1.70;;
52102;SDS011;38101;53.126;6.878;2022-12-07T01:53:26;4.97;;;1.73;;
52102;SDS011;38101;53.126;6.878;2022-12-07T01:55:54;4.43;;;1.98;;
52102;SDS011;38101;53.126;6.878;2022-12-07T01:58:21;6.55;;;1.70;;
52102;SDS011;38101;53.126;6.878;2022-12-07T02:00:48;5.82;;;1.60;;
52102;SDS011;38101;53.126;6.878;2022-12-07T02:05:50;5.07;;;2.00;;
52102;SDS011;38101;53.126;6.878;2022-12-07T02:08:17;8.77;;;1.95;;
52102;SDS011;38101;53.126;6.878;2022-12-07T02:10:44;7.75;;;1.90;;
52102;SDS011;38101;53.126;6.878;2022-12-07T02:13:15;7.03;;;1.85;;
52102;SDS011;38101;53.126;6.878;2022-12-07T02:32:36;4.00;;;1.70;;
52102;SDS011;38101;53.126;6.878;2022-12-07T02:43:55;2.58;;;1.00;;
52102;SDS011;38101;53.126;6.878;2022-12-07T02:46:28;5.22;;;1.15;;
52102;SDS011;38101;53.126;6.878;2022-12-07T02:48:57;3.85;;;1.42;;
52102;SDS011;38101;53.126;6.878;2022-12-07T02:51:25;2.85;;;1.30;;
52102;SDS011;38101;53.126;6.878;2022-12-07T02:53:54;4.20;;;1.30;;
52102;SDS011;38101;53.126;6.878;2022-12-07T03:15:36;5.60;;;2.00;;
52102;SDS011;38101;53.126;6.878;2022-12-07T03:18:05;3.70;;;1.67;;
52102;SDS011;38101;53.126;6.878;2022-12-07T03:20:34;3.90;;;1.50;;
52102;SDS011;38101;53.126;6.878;2022-12-07T03:23:03;4.85;;;1.60;;
52102;SDS011;38101;53.126;6.878;2022-12-07T03:25:31;6.03;;;1.50;;
52102;SDS011;38101;53.126;6.878;2022-12-07T03:28:00;7.13;;;1.80;;
52102;SDS011;38101;53.126;6.878;2022-12-07T03:30:32;6.05;;;1.63;;
52102;SDS011;38101;53.126;6.878;2022-12-07T03:33:09;5.55;;;1.85;;
52102;SDS011;38101;53.126;6.878;2022-12-07T03:35:43;6.32;;;1.77;;
52102;SDS011;38101;53.126;6.878;2022-12-07T03:38:18;4.45;;;1.38;;
52102;SDS011;38101;53.126;6.878;2022-12-07T03:43:17;5.93;;;1.45;;
52102;SDS011;38101;53.126;6.878;2022-12-07T03:45:44;5.15;;;1.60;;
52102;SDS011;38101;53.126;6.878;2022-12-07T03:48:33;6.28;;;1.92;;
52102;SDS011;38101;53.126;6.878;2022-12-07T03:51:22;4.93;;;1.77;;
52102;SDS011;38101;53.126;6.878;2022-12-07T03:56:44;5.95;;;1.60;;
52102;SDS011;38101;53.126;6.878;2022-12-07T03:59:12;4.80;;;1.70;;
52102;SDS011;38101;53.126;6.878;2022-12-07T04:01:40;6.93;;;1.92;;
52102;SDS011;38101;53.126;6.878;2022-12-07T04:04:07;6.63;;;1.90;;
52102;SDS011;38101;53.126;6.878;2022-12-07T04:06:33;7.45;;;2.08;;
52102;SDS011;38101;53.126;6.878;2022-12-07T04:08:59;7.40;;;2.47;;
52102;SDS011;38101;53.126;6.878;2022-12-07T04:11:24;7.93;;;2.08;;
52102;SDS011;38101;53.126;6.878;2022-12-07T04:13:50;5.75;;;1.80;;
52102;SDS011;38101;53.126;6.878;2022-12-07T04:16:34;5.70;;;1.90;;
52102;SDS011;38101;53.126;6.878;2022-12-07T04:19:00;4.78;;;1.70;;
52102;SDS011;38101;53.126;6.878;2022-12-07T04:21:25;6.78;;;1.88;;
52102;SDS011;38101;53.126;6.878;2022-12-07T04:23:51;4.95;;;1.60;;
52102;SDS011;38101;53.126;6.878;2022-12-07T04:26:16;5.35;;;1.65;;
52102;SDS011;38101;53.126;6.878;2022-12-07T04:28:42;5.78;;;1.85;;
52102;SDS011;38101;53.126;6.878;2022-12-07T04:31:08;5.25;;;1.25;;
52102;SDS011;38101;53.126;6.878;2022-12-07T04:33:35;4.05;;;1.23;;
52102;SDS011;38101;53.126;6.878;2022-12-07T04:36:00;7.70;;;1.80;;
52102;SDS011;38101;53.126;6.878;2022-12-07T04:38:26;5.00;;;1.40;;
52102;SDS011;38101;53.126;6.878;2022-12-07T04:40:51;5.80;;;1.52;;
52102;SDS011;38101;53.126;6.878;2022-12-07T04:43:17;5.22;;;1.83;;
52102;SDS011;38101;53.126;6.878;2022-12-07T04:45:49;6.30;;;1.58;;
52102;SDS011;38101;53.126;6.878;2022-12-07T04:48:16;6.90;;;2.15;;
52102;SDS011;38101;53.126;6.878;2022-12-07T04:50:41;5.53;;;1.50;;
52102;SDS011;38101;53.126;6.878;2022-12-07T04:53:07;6.63;;;1.48;;
52102;SDS011;38101;53.126;6.878;2022-12-07T04:55:33;4.28;;;1.40;;
52102;SDS011;38101;53.126;6.878;2022-12-07T04:57:58;7.43;;;1.92;;
52102;SDS011;38101;53.126;6.878;2022-12-07T05:00:24;4.93;;;1.65;;
52102;SDS011;38101;53.126;6.878;2022-12-07T05:02:49;4.82;;;1.75;;
52102;SDS011;38101;53.126;6.878;2022-12-07T05:05:15;6.65;;;1.80;;
52102;SDS011;38101;53.126;6.878;2022-12-07T05:07:41;4.78;;;1.08;;
52102;SDS011;38101;53.126;6.878;2022-12-07T05:10:06;2.10;;;1.10;;
52102;SDS011;38101;53.126;6.878;2022-12-07T05:12:32;4.63;;;1.60;;
52102;SDS011;38101;53.126;6.878;2022-12-07T05:14:58;4.97;;;1.42;;
52102;SDS011;38101;53.126;6.878;2022-12-07T05:17:24;2.83;;;1.42;;
52102;SDS011;38101;53.126;6.878;2022-12-07T05:19:49;3.88;;;1.20;;
52102;SDS011;38101;53.126;6.878;2022-12-07T05:22:15;5.75;;;1.10;;
52102;SDS011;38101;53.126;6.878;2022-12-07T05:24:40;4.60;;;1.70;;
52102;SDS011;38101;53.126;6.878;2022-12-07T05:27:06;3.20;;;1.05;;
52102;SDS011;38101;53.126;6.878;2022-12-07T05:29:32;2.90;;;1.30;;
52102;SDS011;38101;53.126;6.878;2022-12-07T05:31:57;4.38;;;1.70;;
52102;SDS011;38101;53.126;6.878;2022-12-07T05:34:23;4.82;;;1.27;;
52102;SDS011;38101;53.126;6.878;2022-12-07T05:36:49;4.70;;;1.05;;
52102;SDS011;38101;53.126;6.878;2022-12-07T05:39:15;5.25;;;1.45;;
52102;SDS011;38101;53.126;6.878;2022-12-07T05:41:41;4.97;;;1.30;;
52102;SDS011;38101;53.126;6.878;2022-12-07T05:44:25;4.33;;;1.40;;
52102;SDS011;38101;53.126;6.878;2022-12-07T05:46:50;4.00;;;1.20;;
52102;SDS011;38101;53.126;6.878;2022-12-07T05:49:16;4.57;;;1.45;;
52102;SDS011;38101;53.126;6.878;2022-12-07T05:51:42;3.35;;;1.30;;
52102;SDS011;38101;53.126;6.878;2022-12-07T05:54:07;3.83;;;1.38;;
52102;SDS011;38101;53.126;6.878;2022-12-07T05:56:33;3.55;;;1.20;;
52102;SDS011;38101;53.126;6.878;2022-12-07T05:58:59;5.53;;;1.92;;
52102;SDS011;38101;53.126;6.878;2022-12-07T06:01:43;3.47;;;1.10;;
52102;SDS011;38101;53.126;6.878;2022-12-07T06:04:09;4.05;;;1.33;;
52102;SDS011;38101;53.126;6.878;2022-12-07T06:06:35;6.45;;;1.75;;
52102;SDS011;38101;53.126;6.878;2022-12-07T06:09:00;3.10;;;1.42;;
52102;SDS011;38101;53.126;6.878;2022-12-07T06:11:27;4.85;;;1.45;;
52102;SDS011;38101;53.126;6.878;2022-12-07T06:14:11;5.32;;;1.40;;
52102;SDS011;38101;53.126;6.878;2022-12-07T06:16:37;5.32;;;1.63;;
52102;SDS011;38101;53.126;6.878;2022-12-07T06:19:02;4.38;;;1.50;;
52102;SDS011;38101;53.126;6.878;2022-12-07T06:21:28;2.75;;;1.35;;
52102;SDS011;38101;53.126;6.878;2022-12-07T06:23:54;4.00;;;1.58;;
52102;SDS011;38101;53.126;6.878;2022-12-07T06:26:20;4.05;;;1.13;;
52102;SDS011;38101;53.126;6.878;2022-12-07T06:28:46;4.18;;;1.48;;
52102;SDS011;38101;53.126;6.878;2022-12-07T06:31:11;5.88;;;1.50;;
52102;SDS011;38101;53.126;6.878;2022-12-07T06:33:37;5.05;;;1.30;;
52102;SDS011;38101;53.126;6.878;2022-12-07T06:36:03;6.53;;;1.98;;
52102;SDS011;38101;53.126;6.878;2022-12-07T06:38:28;4.28;;;1.83;;
52102;SDS011;38101;53.126;6.878;2022-12-07T06:40:54;6.53;;;1.77;;
52102;SDS011;38101;53.126;6.878;2022-12-07T06:43:20;9.00;;;1.98;;
52102;SDS011;38101;53.126;6.878;2022-12-07T06:45:45;5.20;;;1.90;;
52102;SDS011;38101;53.126;6.878;2022-12-07T06:48:11;5.80;;;2.00;;
52102;SDS011;38101;53.126;6.878;2022-12-07T06:50:37;5.18;;;2.00;;
52102;SDS011;38101;53.126;6.878;2022-12-07T06:53:02;7.00;;;1.90;;
52102;SDS011;38101;53.126;6.878;2022-12-07T06:55:28;9.00;;;1.98;;
52102;SDS011;38101;53.126;6.878;2022-12-07T06:57:54;5.95;;;1.80;;
52102;SDS011;38101;53.126;6.878;2022-12-07T07:00:19;8.35;;;2.00;;
52102;SDS011;38101;53.126;6.878;2022-12-07T07:02:45;5.70;;;2.10;;
52102;SDS011;38101;53.126;6.878;2022-12-07T07:05:11;5.13;;;1.60;;
52102;SDS011;38101;53.126;6.878;2022-12-07T07:07:36;5.50;;;1.77;;
52102;SDS011;38101;53.126;6.878;2022-12-07T07:10:02;5.72;;;2.00;;
52102;SDS011;38101;53.126;6.878;2022-12-07T07:12:28;6.57;;;1.85;;
52102;SDS011;38101;53.126;6.878;2022-12-07T07:14:54;7.07;;;1.88;;
52102;SDS011;38101;53.126;6.878;2022-12-07T07:17:19;6.47;;;2.13;;
52102;SDS011;38101;53.126;6.878;2022-12-07T07:19:45;4.40;;;1.60;;
52102;SDS011;38101;53.126;6.878;2022-12-07T07:22:11;6.90;;;2.13;;
52102;SDS011;38101;53.126;6.878;2022-12-07T07:24:36;6.88;;;1.80;;
52102;SDS011;38101;53.126;6.878;2022-12-07T07:27:02;5.70;;;1.77;;
52102;SDS011;38101;53.126;6.878;2022-12-07T07:29:27;6.05;;;2.17;;
52102;SDS011;38101;53.126;6.878;2022-12-07T07:31:53;5.70;;;2.17;;
52102;SDS011;38101;53.126;6.878;2022-12-07T07:34:19;5.38;;;1.75;;
52102;SDS011;38101;53.126;6.878;2022-12-07T07:36:44;6.53;;;1.80;;
52102;SDS011;38101;53.126;6.878;2022-12-07T07:39:10;5.05;;;1.58;;
52102;SDS011;38101;53.126;6.878;2022-12-07T07:41:37;5.32;;;2.15;;
52102;SDS011;38101;53.126;6.878;2022-12-07T07:44:03;4.35;;;2.03;;
52102;SDS011;38101;53.126;6.878;2022-12-07T07:46:29;4.68;;;1.50;;
52102;SDS011;38101;53.126;6.878;2022-12-07T07:48:55;6.20;;;1.50;;
52102;SDS011;38101;53.126;6.878;2022-12-07T07:51:21;5.55;;;1.45;;
52102;SDS011;38101;53.126;6.878;2022-12-07T07:53:46;3.67;;;2.03;;
52102;SDS011;38101;53.126;6.878;2022-12-07T07:56:12;4.38;;;1.83;;
52102;SDS011;38101;53.126;6.878;2022-12-07T07:58:37;4.75;;;2.03;;
52102;SDS011;38101;53.126;6.878;2022-12-07T08:01:07;3.88;;;1.65;;
52102;SDS011;38101;53.126;6.878;2022-12-07T08:03:33;6.65;;;2.20;;
52102;SDS011;38101;53.126;6.878;2022-12-07T08:05:59;5.78;;;1.90;;
52102;SDS011;38101;53.126;6.878;2022-12-07T08:08:29;4.95;;;1.67;;
52102;SDS011;38101;53.126;6.878;2022-12-07T08:10:55;4.82;;;1.80;;
52102;SDS011;38101;53.126;6.878;2022-12-07T08:13:21;5.30;;;1.88;;
52102;SDS011;38101;53.126;6.878;2022-12-07T08:15:47;4.03;;;1.90;;
52102;SDS011;38101;53.126;6.878;2022-12-07T08:18:13;5.13;;;1.73;;
52102;SDS011;38101;53.126;6.878;2022-12-07T08:20:40;7.30;;;1.80;;
52102;SDS011;38101;53.126;6.878;2022-12-07T08:23:07;3.30;;;1.23;;
52102;SDS011;38101;53.126;6.878;2022-12-07T08:25:34;5.22;;;1.52;;
52102;SDS011;38101;53.126;6.878;2022-12-07T08:27:59;6.68;;;1.90;;
52102;SDS011;38101;53.126;6.878;2022-12-07T08:30:25;5.57;;;1.77;;
52102;SDS011;38101;53.126;6.878;2022-12-07T08:32:51;3.28;;;1.58;;
52102;SDS011;38101;53.126;6.878;2022-12-07T08:35:17;4.72;;;1.60;;
52102;SDS011;38101;53.126;6.878;2022-12-07T08:37:43;5.45;;;1.75;;
52102;SDS011;38101;53.126;6.878;2022-12-07T08:40:09;6.00;;;1.45;;
52102;SDS011;38101;53.126;6.878;2022-12-07T08:42:40;3.67;;;1.40;;
52102;SDS011;38101;53.126;6.878;2022-12-07T08:45:11;4.68;;;1.60;;
52102;SDS011;38101;53.126;6.878;2022-12-07T08:47:41;3.65;;;1.35;;
52102;SDS011;38101;53.126;6.878;2022-12-07T08:50:10;5.95;;;1.90;;
52102;SDS011;38101;53.126;6.878;2022-12-07T08:52:37;4.70;;;1.65;;
52102;SDS011;38101;53.126;6.878;2022-12-07T08:55:04;4.30;;;1.63;;
52102;SDS011;38101;53.126;6.878;2022-12-07T08:57:31;5.85;;;2.50;;
52102;SDS011;38101;53.126;6.878;2022-12-07T08:59:59;4.03;;;1.65;;
52102;SDS011;38101;53.126;6.878;2022-12-07T09:02:25;7.18;;;2.00;;
52102;SDS011;38101;53.126;6.878;2022-12-07T09:04:51;5.13;;;2.13;;
52102;SDS011;38101;53.126;6.878;2022-12-07T09:07:16;5.68;;;1.95;;
52102;SDS011;38101;53.126;6.878;2022-12-07T09:09:42;6.88;;;2.03;;
52102;SDS011;38101;53.126;6.878;2022-12-07T09:12:08;8.85;;;2.05;;
52102;SDS011;38101;53.126;6.878;2022-12-07T09:14:34;4.40;;;1.85;;
52102;SDS011;38101;53.126;6.878;2022-12-07T09:17:06;6.22;;;1.80;;
52102;SDS011;38101;53.126;6.878;2022-12-07T09:19:36;6.22;;;2.17;;
52102;SDS011;38101;53.126;6.878;2022-12-07T09:22:03;8.65;;;2.00;;
52102;SDS011;38101;53.126;6.878;2022-12-07T09:24:30;7.97;;;2.20;;
52102;SDS011;38101;53.126;6.878;2022-12-07T09:26:57;8.90;;;2.58;;
52102;SDS011;38101;53.126;6.878;2022-12-07T09:29:23;6.93;;;2.03;;
52102;SDS011;38101;53.126;6.878;2022-12-07T09:31:49;9.70;;;2.22;;
52102;SDS011;38101;53.126;6.878;2022-12-07T09:34:14;8.63;;;2.33;;
52102;SDS011;38101;53.126;6.878;2022-12-07T09:36:40;8.13;;;2.08;;
52102;SDS011;38101;53.126;6.878;2022-12-07T09:39:07;9.18;;;2.20;;
52102;SDS011;38101;53.126;6.878;2022-12-07T09:41:33;8.20;;;2.13;;
52102;SDS011;38101;53.126;6.878;2022-12-07T09:44:05;7.43;;;2.47;;
52102;SDS011;38101;53.126;6.878;2022-12-07T09:46:44;6.10;;;2.15;;
52102;SDS011;38101;53.126;6.878;2022-12-07T09:49:20;4.68;;;1.90;;
52102;SDS011;38101;53.126;6.878;2022-12-07T09:52:00;9.52;;;2.30;;
52102;SDS011;38101;53.126;6.878;2022-12-07T09:54:48;6.00;;;2.20;;
52102;SDS011;38101;53.126;6.878;2022-12-07T09:57:15;7.10;;;2.45;;
52102;SDS011;38101;53.126;6.878;2022-12-07T09:59:42;8.48;;;2.03;;
52102;SDS011;38101;53.126;6.878;2022-12-07T10:02:23;6.95;;;2.00;;
52102;SDS011;38101;53.126;6.878;2022-12-07T10:04:59;7.05;;;1.95;;
52102;SDS011;38101;53.126;6.878;2022-12-07T10:07:25;4.63;;;1.95;;
52102;SDS011;38101;53.126;6.878;2022-12-07T10:09:50;7.97;;;2.10;;
52102;SDS011;38101;53.126;6.878;2022-12-07T10:12:16;8.80;;;2.30;;
52102;SDS011;38101;53.126;6.878;2022-12-07T10:14:53;8.88;;;2.78;;
52102;SDS011;38101;53.126;6.878;2022-12-07T10:19:52;6.13;;;1.90;;
52102;SDS011;38101;53.126;6.878;2022-12-07T10:23:05;7.60;;;2.50;;
52102;SDS011;38101;53.126;6.878;2022-12-07T10:25:38;4.32;;;1.90;;
52102;SDS011;38101;53.126;6.878;2022-12-07T10:35:58;8.43;;;2.10;;
52102;SDS011;38101;53.126;6.878;2022-12-07T10:38:25;6.30;;;1.80;;
52102;SDS011;38101;53.126;6.878;2022-12-07T10:41:05;6.75;;;2.50;;
52102;SDS011;38101;53.126;6.878;2022-12-07T10:43:32;6.65;;;1.90;;
52102;SDS011;38101;53.126;6.878;2022-12-07T10:51:27;8.15;;;2.17;;
52102;SDS011;38101;53.126;6.878;2022-12-07T10:54:06;9.70;;;2.40;;
52102;SDS011;38101;53.126;6.878;2022-12-07T11:02:23;8.82;;;2.38;;
52102;SDS011;38101;53.126;6.878;2022-12-07T11:13:12;7.60;;;2.10;;
52102;SDS011;38101;53.126;6.878;2022-12-07T11:21:36;8.55;;;2.20;;
52102;SDS011;38101;53.126;6.878;2022-12-07T11:24:15;5.50;;;2.00;;
52102;SDS011;38101;53.126;6.878;2022-12-07T11:27:06;7.45;;;2.00;;
52102;SDS011;38101;53.126;6.878;2022-12-07T11:32:51;6.60;;;2.05;;
52102;SDS011;38101;53.126;6.878;2022-12-07T11:35:33;6.50;;;2.40;;
52102;SDS011;38101;53.126;6.878;2022-12-07T11:38:15;4.53;;;2.00;;
52102;SDS011;38101;53.126;6.878;2022-12-07T11:40:47;4.68;;;1.90;;
52102;SDS011;38101;53.126;6.878;2022-12-07T11:43:32;5.60;;;1.90;;
52102;SDS011;38101;53.126;6.878;2022-12-07T11:46:11;6.20;;;2.13;;
52102;SDS011;38101;53.126;6.878;2022-12-07T11:48:45;5.78;;;2.15;;
52102;SDS011;38101;53.126;6.878;2022-12-07T11:51:17;4.78;;;1.58;;
52102;SDS011;38101;53.126;6.878;2022-12-07T11:53:51;4.97;;;2.13;;
52102;SDS011;38101;53.126;6.878;2022-12-07T11:56:23;4.72;;;2.10;;
52102;SDS011;38101;53.126;6.878;2022-12-07T11:59:02;5.32;;;1.83;;
52102;SDS011;38101;53.126;6.878;2022-12-07T12:01:56;6.32;;;1.70;;
52102;SDS011;38101;53.126;6.878;2022-12-07T12:04:46;3.30;;;1.40;;
52102;SDS011;38101;53.126;6.878;2022-12-07T12:07:14;3.05;;;1.60;;
52102;SDS011;38101;53.126;6.878;2022-12-07T12:09:48;3.75;;;1.30;;
52102;SDS011;38101;53.126;6.878;2022-12-07T12:15:17;3.30;;;0.98;;
52102;SDS011;38101;53.126;6.878;2022-12-07T12:20:49;2.10;;;1.40;;
52102;SDS011;38101;53.126;6.878;2022-12-07T12:23:27;2.42;;;1.10;;
52102;SDS011;38101;53.126;6.878;2022-12-07T12:26:06;3.70;;;1.17;;
52102;SDS011;38101;53.126;6.878;2022-12-07T12:28:40;5.10;;;1.90;;
52102;SDS011;38101;53.126;6.878;2022-12-07T12:34:00;3.95;;;1.33;;
52102;SDS011;38101;53.126;6.878;2022-12-07T12:46:57;2.40;;;1.25;;
52102;SDS011;38101;53.126;6.878;2022-12-07T12:49:30;4.13;;;1.50;;
52102;SDS011;38101;53.126;6.878;2022-12-07T12:54:56;3.20;;;1.20;;
52102;SDS011;38101;53.126;6.878;2022-12-07T12:57:32;3.65;;;1.58;;
52102;SDS011;38101;53.126;6.878;2022-12-07T12:59:58;5.45;;;1.63;;
52102;SDS011;38101;53.126;6.878;2022-12-07T13:15:38;3.22;;;1.23;;
52102;SDS011;38101;53.126;6.878;2022-12-07T13:29:10;3.45;;;1.48;;
52102;SDS011;38101;53.126;6.878;2022-12-07T13:31:49;10.48;;;2.28;;
52102;SDS011;38101;53.126;6.878;2022-12-07T13:39:49;4.05;;;1.20;;
52102;SDS011;38101;53.126;6.878;2022-12-07T13:42:26;2.65;;;1.15;;
52102;SDS011;38101;53.126;6.878;2022-12-07T13:44:57;5.93;;;1.30;;
52102;SDS011;38101;53.126;6.878;2022-12-07T13:52:49;2.92;;;1.25;;
52102;SDS011;38101;53.126;6.878;2022-12-07T13:55:15;4.13;;;1.40;;
52102;SDS011;38101;53.126;6.878;2022-12-07T13:57:42;3.15;;;1.13;;
52102;SDS011;38101;53.126;6.878;2022-12-07T14:00:16;3.50;;;1.33;;
52102;SDS011;38101;53.126;6.878;2022-12-07T14:02:59;5.18;;;1.40;;
52102;SDS011;38101;53.126;6.878;2022-12-07T14:05:27;4.65;;;1.40;;
52102;SDS011;38101;53.126;6.878;2022-12-07T14:08:02;3.83;;;1.08;;
52102;SDS011;38101;53.126;6.878;2022-12-07T14:12:59;4.90;;;1.20;;
52102;SDS011;38101;53.126;6.878;2022-12-07T14:15:28;3.03;;;1.20;;
52102;SDS011;38101;53.126;6.878;2022-12-07T14:17:56;4.38;;;1.33;;
52102;SDS011;38101;53.126;6.878;2022-12-07T14:23:22;2.30;;;0.80;;
52102;SDS011;38101;53.126;6.878;2022-12-07T14:25:50;3.45;;;0.88;;
52102;SDS011;38101;53.126;6.878;2022-12-07T14:28:30;2.58;;;0.88;;
52102;SDS011;38101;53.126;6.878;2022-12-07T14:30:58;3.97;;;1.20;;
52102;SDS011;38101;53.126;6.878;2022-12-07T14:33:25;3.13;;;1.15;;
52102;SDS011;38101;53.126;6.878;2022-12-07T14:35:51;1.30;;;0.90;;
52102;SDS011;38101;53.126;6.878;2022-12-07T14:38:21;2.22;;;1.10;;
52102;SDS011;38101;53.126;6.878;2022-12-07T14:40:47;1.80;;;0.77;;
52102;SDS011;38101;53.126;6.878;2022-12-07T14:43:14;3.58;;;1.30;;
52102;SDS011;38101;53.126;6.878;2022-12-07T14:45:41;4.43;;;1.20;;
52102;SDS011;38101;53.126;6.878;2022-12-07T14:48:08;2.97;;;0.90;;
52102;SDS011;38101;53.126;6.878;2022-12-07T14:50:39;4.32;;;1.10;;
52102;SDS011;38101;53.126;6.878;2022-12-07T14:53:18;2.40;;;0.80;;
52102;SDS011;38101;53.126;6.878;2022-12-07T14:55:51;1.67;;;0.80;;
52102;SDS011;38101;53.126;6.878;2022-12-07T14:58:17;1.92;;;0.85;;
52102;SDS011;38101;53.126;6.878;2022-12-07T15:00:44;1.52;;;0.82;;
52102;SDS011;38101;53.126;6.878;2022-12-07T15:03:10;3.05;;;1.55;;
52102;SDS011;38101;53.126;6.878;2022-12-07T15:05:38;3.55;;;1.77;;
52102;SDS011;38101;53.126;6.878;2022-12-07T15:08:04;3.53;;;1.60;;
52102;SDS011;38101;53.126;6.878;2022-12-07T15:10:31;4.55;;;1.70;;
52102;SDS011;38101;53.126;6.878;2022-12-07T15:13:00;4.25;;;1.10;;
52102;SDS011;38101;53.126;6.878;2022-12-07T15:15:46;2.72;;;1.10;;
52102;SDS011;38101;53.126;6.878;2022-12-07T15:18:13;2.60;;;1.23;;
52102;SDS011;38101;53.126;6.878;2022-12-07T15:20:40;3.45;;;1.30;;
52102;SDS011;38101;53.126;6.878;2022-12-07T15:23:05;4.50;;;1.60;;
52102;SDS011;38101;53.126;6.878;2022-12-07T15:25:31;4.50;;;1.95;;
52102;SDS011;38101;53.126;6.878;2022-12-07T15:27:57;4.13;;;1.75;;
52102;SDS011;38101;53.126;6.878;2022-12-07T15:30:23;7.32;;;1.88;;
52102;SDS011;38101;53.126;6.878;2022-12-07T15:32:49;2.65;;;1.60;;
52102;SDS011;38101;53.126;6.878;2022-12-07T15:35:18;5.32;;;1.58;;
52102;SDS011;38101;53.126;6.878;2022-12-07T15:37:44;3.70;;;1.80;;
52102;SDS011;38101;53.126;6.878;2022-12-07T15:40:10;3.55;;;1.80;;
52102;SDS011;38101;53.126;6.878;2022-12-07T15:42:36;3.58;;;1.70;;
52102;SDS011;38101;53.126;6.878;2022-12-07T15:45:02;4.05;;;1.88;;
52102;SDS011;38101;53.126;6.878;2022-12-07T15:47:30;4.30;;;1.70;;
52102;SDS011;38101;53.126;6.878;2022-12-07T15:50:01;5.38;;;1.60;;
52102;SDS011;38101;53.126;6.878;2022-12-07T15:52:31;4.05;;;1.90;;
52102;SDS011;38101;53.126;6.878;2022-12-07T15:54:57;4.72;;;1.98;;
52102;SDS011;38101;53.126;6.878;2022-12-07T15:57:24;8.10;;;3.42;;
52102;SDS011;38101;53.126;6.878;2022-12-07T15:59:51;6.93;;;2.90;;
52102;SDS011;38101;53.126;6.878;2022-12-07T16:02:17;7.20;;;2.65;;
52102;SDS011;38101;53.126;6.878;2022-12-07T16:04:42;4.85;;;2.10;;
52102;SDS011;38101;53.126;6.878;2022-12-07T16:07:08;4.68;;;1.80;;
52102;SDS011;38101;53.126;6.878;2022-12-07T16:09:36;4.50;;;1.90;;
52102;SDS011;38101;53.126;6.878;2022-12-07T16:12:02;3.75;;;1.73;;
52102;SDS011;38101;53.126;6.878;2022-12-07T16:14:28;5.72;;;2.00;;
52102;SDS011;38101;53.126;6.878;2022-12-07T16:16:54;3.88;;;2.03;;
52102;SDS011;38101;53.126;6.878;2022-12-07T16:19:19;3.67;;;1.50;;
52102;SDS011;38101;53.126;6.878;2022-12-07T16:21:45;4.60;;;1.63;;
52102;SDS011;38101;53.126;6.878;2022-12-07T16:24:11;2.75;;;1.60;;
52102;SDS011;38101;53.126;6.878;2022-12-07T16:26:38;6.00;;;1.85;;
52102;SDS011;38101;53.126;6.878;2022-12-07T16:29:03;5.75;;;1.80;;
52102;SDS011;38101;53.126;6.878;2022-12-07T16:31:29;3.42;;;1.73;;
52102;SDS011;38101;53.126;6.878;2022-12-07T16:33:56;5.35;;;1.70;;
52102;SDS011;38101;53.126;6.878;2022-12-07T16:36:23;4.35;;;1.63;;
52102;SDS011;38101;53.126;6.878;2022-12-07T16:38:51;4.43;;;1.67;;
52102;SDS011;38101;53.126;6.878;2022-12-07T16:41:17;5.95;;;2.17;;
52102;SDS011;38101;53.126;6.878;2022-12-07T16:43:42;2.42;;;1.42;;
52102;SDS011;38101;53.126;6.878;2022-12-07T16:46:08;4.10;;;1.85;;
52102;SDS011;38101;53.126;6.878;2022-12-07T16:48:35;3.97;;;1.70;;
52102;SDS011;38101;53.126;6.878;2022-12-07T16:51:05;2.88;;;1.55;;
52102;SDS011;38101;53.126;6.878;2022-12-07T16:53:34;5.03;;;1.70;;
52102;SDS011;38101;53.126;6.878;2022-12-07T16:56:00;3.42;;;1.88;;
52102;SDS011;38101;53.126;6.878;2022-12-07T16:58:26;2.85;;;1.80;;
52102;SDS011;38101;53.126;6.878;2022-12-07T17:00:52;3.20;;;1.80;;
52102;SDS011;38101;53.126;6.878;2022-12-07T17:03:18;4.25;;;1.40;;
52102;SDS011;38101;53.126;6.878;2022-12-07T17:05:44;7.32;;;1.90;;
52102;SDS011;38101;53.126;6.878;2022-12-07T17:08:11;4.28;;;1.67;;
52102;SDS011;38101;53.126;6.878;2022-12-07T17:10:39;5.10;;;1.65;;
52102;SDS011;38101;53.126;6.878;2022-12-07T17:13:07;3.65;;;1.45;;
52102;SDS011;38101;53.126;6.878;2022-12-07T17:15:59;3.30;;;1.50;;
52102;SDS011;38101;53.126;6.878;2022-12-07T17:18:28;3.88;;;1.95;;
52102;SDS011;38101;53.126;6.878;2022-12-07T17:20:59;2.95;;;1.35;;
52102;SDS011;38101;53.126;6.878;2022-12-07T17:23:31;4.22;;;1.55;;
52102;SDS011;38101;53.126;6.878;2022-12-07T17:26:03;4.20;;;1.38;;
52102;SDS011;38101;53.126;6.878;2022-12-07T17:28:30;2.67;;;1.35;;
52102;SDS011;38101;53.126;6.878;2022-12-07T17:30:56;3.30;;;1.42;;